Time;durP1;ratioP1;P1;durP2;ratioP2;P2;SDS_P1;SDS_P2;PMS_P1;PMS_P2;Temp;Humidity;BMP_temperature;BMP_pressure;BME280_temperature;BME280_humidity;BME280_pressure;Samples;Min_cycle;Max_cycle;Signal;HPM_P1;HPM_P2
2023/03/12 00:00:45;;;;;;;3.93;2.57;;;;;;;-145.03;100.00;78564.31;5070934;28;20516;-74
2023/03/12 00:03:11;;;;;;;9.43;3.07;;;;;;;-145.03;100.00;78560.31;5065306;28;20487;-75
2023/03/12 00:05:38;;;;;;;3.13;2.23;;;;;;;-145.03;100.00;78560.31;5082895;28;20478;-76
2023/03/12 00:08:06;;;;;;;3.47;2.63;;;;;;;-145.03;100.00;78554.31;5065279;28;20486;-76
2023/03/12 00:10:32;;;;;;;6.67;2.83;;;;;;;-145.03;100.00;78556.31;5063261;28;21015;-75
2023/03/12 00:13:00;;;;;;;2.53;2.33;;;;;;;-145.03;100.00;78556.31;5060247;28;20464;-75
2023/03/12 00:15:27;;;;;;;10.23;2.67;;;;;;;-145.03;100.00;78562.31;5066712;28;20458;-75
2023/03/12 00:17:54;;;;;;;3.83;2.30;;;;;;;-145.03;100.00;78566.28;5064357;28;20473;-76
2023/03/12 00:20:22;;;;;;;7.37;2.63;;;;;;;-145.03;100.00;78566.28;5067856;28;20973;-75
2023/03/12 00:22:48;;;;;;;3.87;2.97;;;;;;;-145.03;100.00;78572.28;5065109;28;20484;-75
2023/03/12 00:25:16;;;;;;;5.60;2.90;;;;;;;-145.03;100.00;78570.28;5068324;28;20485;-75
2023/03/12 00:27:42;;;;;;;3.80;2.60;;;;;;;-145.03;100.00;78572.28;5066518;28;20737;-76
2023/03/12 00:30:11;;;;;;;7.57;3.33;;;;;;;-145.03;100.00;78572.28;5058474;28;20506;-75
2023/03/12 00:32:38;;;;;;;3.40;2.30;;;;;;;-145.03;100.00;78572.28;5063068;28;20816;-75
2023/03/12 00:35:06;;;;;;;4.80;2.50;;;;;;;-145.03;100.00;78574.28;5062769;28;20465;-75
2023/03/12 00:37:32;;;;;;;7.77;2.53;;;;;;;-145.03;100.00;78576.28;5062553;28;20469;-76
2023/03/12 00:40:00;;;;;;;8.60;3.03;;;;;;;-145.03;100.00;78568.28;5063174;28;20456;-76
2023/03/12 00:42:29;;;;;;;3.07;2.57;;;;;;;-145.03;100.00;78568.28;5063978;28;20459;-76
2023/03/12 00:44:55;;;;;;;3.77;2.40;;;;;;;-145.03;100.00;78568.28;5061595;28;20840;-74
2023/03/12 00:47:23;;;;;;;3.07;2.27;;;;;;;-145.03;100.00;78570.28;5065128;28;20485;-74
2023/03/12 00:49:50;;;;;;;4.50;2.60;;;;;;;-145.03;100.00;78568.28;5067350;28;20460;-74
2023/03/12 00:52:16;;;;;;;6.37;2.70;;;;;;;-145.03;100.00;78560.31;5061731;28;20464;-75
2023/03/12 00:54:43;;;;;;;3.33;2.53;;;;;;;-145.03;100.00;78554.31;5064398;28;20479;-75
2023/03/12 00:57:09;;;;;;;3.53;2.60;;;;;;;-145.03;100.00;78556.31;5061066;28;20507;-76
2023/03/12 00:59:39;;;;;;;7.03;2.57;;;;;;;-145.03;100.00;78560.31;5061104;28;20488;-74
2023/03/12 01:02:06;;;;;;;6.93;2.50;;;;;;;-145.03;100.00;78552.31;5059791;28;20487;-73
2023/03/12 01:04:33;;;;;;;4.90;2.70;;;;;;;-145.03;100.00;78552.31;5063443;28;20452;-74
2023/03/12 01:07:00;;;;;;;8.43;2.50;;;;;;;-145.03;100.00;78558.31;5060955;28;20473;-73
2023/03/12 01:09:28;;;;;;;6.43;2.90;;;;;;;-145.03;100.00;78568.28;5062051;28;20585;-74
2023/03/12 01:11:54;;;;;;;6.40;2.70;;;;;;;-145.03;100.00;78572.28;5061111;28;20908;-74
2023/03/12 01:14:21;;;;;;;3.47;2.70;;;;;;;-145.03;100.00;78554.31;5060570;28;20468;-74
2023/03/12 01:16:47;;;;;;;4.13;2.70;;;;;;;-145.03;100.00;78552.31;5064861;28;21067;-74
2023/03/12 01:19:13;;;;;;;3.67;2.50;;;;;;;-145.03;100.00;78550.31;5062508;28;20508;-74
2023/03/12 01:21:41;;;;;;;6.20;2.80;;;;;;;-145.03;100.00;78554.31;5061680;28;20891;-73
2023/03/12 01:24:08;;;;;;;10.77;2.90;;;;;;;-145.03;100.00;78564.31;5061952;28;20455;-74
2023/03/12 01:26:34;;;;;;;6.47;2.50;;;;;;;-145.03;100.00;78566.28;5062770;28;20469;-74
2023/03/12 01:29:00;;;;;;;3.97;2.83;;;;;;;-145.03;100.00;78572.28;5060747;28;20650;-74
2023/03/12 01:31:27;;;;;;;10.37;3.13;;;;;;;-145.03;100.00;78564.31;5058451;28;20460;-73
2023/03/12 01:33:53;;;;;;;5.73;3.27;;;;;;;-145.03;100.00;78568.28;5064575;28;20460;-74
2023/03/12 01:36:22;;;;;;;6.87;3.07;;;;;;;-145.03;100.00;78572.28;5062368;28;20478;-74
2023/03/12 01:38:52;;;;;;;9.07;2.70;;;;;;;-145.03;100.00;78578.28;5058034;28;20533;-73
2023/03/12 01:41:18;;;;;;;4.53;3.03;;;;;;;-145.03;100.00;78574.28;5058878;28;20460;-74
2023/03/12 01:43:45;;;;;;;4.50;2.93;;;;;;;-145.03;100.00;78578.28;5057538;28;20453;-74
2023/03/12 01:46:30;;;;;;;6.80;2.80;;;;;;;-145.03;100.00;78584.25;5063051;28;20479;-74
2023/03/12 01:49:01;;;;;;;4.77;3.00;;;;;;;-145.03;100.00;78592.25;5056631;28;20563;-74
2023/03/12 01:51:33;;;;;;;7.93;2.90;;;;;;;-145.03;100.00;78592.25;5060064;28;20466;-74
2023/03/12 01:54:07;;;;;;;3.63;2.50;;;;;;;-145.03;100.00;78602.25;5055841;28;21058;-74
2023/03/12 01:56:35;;;;;;;4.00;3.07;;;;;;;-145.03;100.00;78602.25;5053623;28;20447;-74
2023/03/12 01:59:08;;;;;;;4.83;3.07;;;;;;;-145.03;100.00;78602.25;5052089;28;20479;-74
2023/03/12 02:01:34;;;;;;;3.13;2.67;;;;;;;-145.03;100.00;78600.25;5059652;28;20464;-74
2023/03/12 02:04:01;;;;;;;3.03;2.73;;;;;;;-145.03;100.00;78598.25;5057600;28;20791;-74
2023/03/12 02:06:34;;;;;;;6.73;2.87;;;;;;;-145.03;100.00;78602.25;5057874;28;20479;-74
2023/03/12 02:09:05;;;;;;;5.67;2.63;;;;;;;-145.03;100.00;78600.25;5058610;28;20489;-74
2023/03/12 02:11:32;;;;;;;5.27;2.40;;;;;;;-145.03;100.00;78610.22;5059429;28;20493;-73
2023/03/12 02:13:59;;;;;;;5.63;3.30;;;;;;;-145.03;100.00;78612.22;5076793;28;20466;-74
2023/03/12 02:16:26;;;;;;;2.97;2.70;;;;;;;-145.03;100.00;78614.22;5065029;28;20453;-74
2023/03/12 02:18:56;;;;;;;6.77;3.20;;;;;;;-145.03;100.00;78616.22;5058640;28;20510;-74
2023/03/12 02:21:25;;;;;;;6.53;2.73;;;;;;;-145.03;100.00;78620.22;5058660;28;20552;-74
2023/03/12 02:24:01;;;;;;;4.57;2.73;;;;;;;-145.03;100.00;78624.22;5057847;28;20486;-74
2023/03/12 02:26:31;;;;;;;4.73;2.87;;;;;;;-145.03;100.00;78624.22;5073977;28;20468;-74
2023/03/12 02:29:00;;;;;;;5.77;3.23;;;;;;;-145.03;100.00;78620.22;5059338;28;20490;-73
2023/03/12 02:31:32;;;;;;;3.67;2.67;;;;;;;-145.03;100.00;78624.22;5062918;28;20772;-74
2023/03/12 02:34:00;;;;;;;4.50;2.83;;;;;;;-145.03;100.00;78622.22;5063586;28;20456;-73
2023/03/12 02:36:27;;;;;;;2.70;2.30;;;;;;;-145.03;100.00;78620.22;5062024;28;20464;-74
2023/03/12 02:38:55;;;;;;;8.20;2.77;;;;;;;-145.03;100.00;78630.19;5060707;28;20886;-74
2023/03/12 02:41:26;;;;;;;6.47;2.93;;;;;;;-145.03;100.00;78624.22;5053279;28;20509;-74
2023/03/12 02:44:00;;;;;;;5.00;2.63;;;;;;;-145.03;100.00;78618.22;5059502;28;20500;-74
2023/03/12 02:46:31;;;;;;;5.27;2.40;;;;;;;-145.03;100.00;78632.19;5059007;28;20837;-74
2023/03/12 02:48:58;;;;;;;9.47;2.33;;;;;;;-145.03;100.00;78620.22;5072712;28;20827;-74
2023/03/12 02:51:24;;;;;;;4.47;2.60;;;;;;;-145.03;100.00;78614.22;5059583;28;20462;-74
2023/03/12 02:53:53;;;;;;;3.40;2.63;;;;;;;-145.03;100.00;78622.22;5055165;28;20463;-74
2023/03/12 02:56:22;;;;;;;4.83;2.63;;;;;;;-145.03;100.00;78616.22;5061110;28;20456;-74
2023/03/12 02:58:48;;;;;;;3.27;2.50;;;;;;;-145.03;100.00;78626.19;5058007;28;20570;-74
2023/03/12 03:01:17;;;;;;;4.60;2.07;;;;;;;-145.03;100.00;78626.19;5062297;28;20570;-73
2023/03/12 03:03:44;;;;;;;3.90;2.80;;;;;;;-145.03;100.00;78620.22;5055879;28;20939;-74
2023/03/12 03:06:11;;;;;;;6.57;2.60;;;;;;;-145.03;100.00;78622.22;5059392;28;20822;-74
2023/03/12 03:08:37;;;;;;;6.07;2.77;;;;;;;-145.03;100.00;78616.22;5063065;28;21122;-73
2023/03/12 03:11:04;;;;;;;2.90;2.30;;;;;;;-145.03;100.00;78610.22;5055363;28;20468;-74
2023/03/12 03:13:31;;;;;;;4.83;2.87;;;;;;;-145.03;100.00;78604.25;5059365;28;20559;-73
2023/03/12 03:15:58;;;;;;;6.07;2.90;;;;;;;-145.03;100.00;78608.22;5057487;28;20460;-73
2023/03/12 03:18:26;;;;;;;5.33;2.73;;;;;;;-145.03;100.00;78606.22;5059480;28;20521;-73
2023/03/12 03:20:55;;;;;;;4.27;2.70;;;;;;;-145.03;100.00;78606.22;5065134;28;20451;-73
2023/03/12 03:23:22;;;;;;;4.13;2.60;;;;;;;-145.03;100.00;78600.25;5061338;28;20443;-74
2023/03/12 03:25:49;;;;;;;5.57;2.70;;;;;;;-145.03;100.00;78604.25;5063075;28;20542;-73
2023/03/12 03:28:15;;;;;;;6.47;3.07;;;;;;;-145.03;100.00;78600.25;5065798;28;20749;-74
2023/03/12 03:30:42;;;;;;;3.60;2.70;;;;;;;-145.03;100.00;78598.25;5055372;28;20460;-74
2023/03/12 03:33:08;;;;;;;3.27;2.53;;;;;;;-145.03;100.00;78608.22;5062674;28;20999;-74
2023/03/12 03:35:36;;;;;;;3.23;2.30;;;;;;;-145.03;100.00;78608.22;5060207;28;20844;-74
2023/03/12 03:38:03;;;;;;;9.30;2.63;;;;;;;-145.03;100.00;78622.22;5059062;28;20477;-73
2023/03/12 03:40:29;;;;;;;4.83;2.60;;;;;;;-145.03;100.00;78632.19;5056275;28;20481;-74
2023/03/12 03:42:56;;;;;;;2.73;1.97;;;;;;;-145.03;100.00;78646.16;5064132;28;20459;-74
2023/03/12 03:45:22;;;;;;;5.77;3.03;;;;;;;-145.03;100.00;78654.16;5059566;28;20449;-73
2023/03/12 03:47:49;;;;;;;8.23;3.67;;;;;;;-145.03;100.00;78666.16;5064155;28;21057;-73
2023/03/12 03:50:16;;;;;;;6.73;2.17;;;;;;;-145.03;100.00;78670.13;5067831;28;20475;-74
2023/03/12 03:52:44;;;;;;;4.23;2.13;;;;;;;-145.03;100.00;78676.13;5063435;28;20547;-74
2023/03/12 03:55:10;;;;;;;3.20;2.40;;;;;;;-145.03;100.00;78684.13;5065496;28;20893;-74
2023/03/12 03:57:38;;;;;;;3.10;2.53;;;;;;;-145.03;100.00;78686.13;5063385;28;20450;-73
2023/03/12 04:00:08;;;;;;;6.40;2.43;;;;;;;-145.03;100.00;78692.09;5059306;28;20451;-74
2023/03/12 04:02:40;;;;;;;3.57;2.10;;;;;;;-145.03;100.00;78696.09;5058790;28;20920;-74
2023/03/12 04:05:09;;;;;;;5.80;2.30;;;;;;;-145.03;100.00;78704.09;5060718;28;21012;-74
2023/03/12 04:07:36;;;;;;;3.00;2.23;;;;;;;-145.03;100.00;78704.09;5061313;28;20766;-73
2023/03/12 04:10:06;;;;;;;2.50;2.00;;;;;;;-145.03;100.00;78710.06;5061483;28;20457;-74
2023/03/12 04:12:33;;;;;;;5.87;1.97;;;;;;;-145.03;100.00;78714.06;5063576;28;20499;-74
2023/03/12 04:15:00;;;;;;;3.60;2.00;;;;;;;-145.03;100.00;78722.06;5062280;28;20976;-74
2023/03/12 04:17:26;;;;;;;5.73;2.00;;;;;;;-145.03;100.00;78734.03;5061844;28;20504;-74
2023/03/12 04:19:53;;;;;;;3.87;2.23;;;;;;;-145.03;100.00;78732.03;5066101;28;20986;-75
2023/03/12 04:22:20;;;;;;;2.13;1.73;;;;;;;-145.03;100.00;78730.03;5064698;28;20956;-74
2023/03/12 04:24:46;;;;;;;3.90;2.20;;;;;;;-145.03;100.00;78734.03;5061671;28;20543;-74
2023/03/12 04:27:14;;;;;;;3.93;1.87;;;;;;;-145.03;100.00;78734.03;5057717;28;20483;-73
2023/03/12 04:29:40;;;;;;;2.43;1.70;;;;;;;-145.03;100.00;78738.03;5065417;28;21020;-74
2023/03/12 04:32:08;;;;;;;6.23;1.63;;;;;;;-145.03;100.00;78742.03;5063007;28;20513;-74
2023/03/12 04:34:35;;;;;;;2.80;1.67;;;;;;;-145.03;100.00;78750.03;5063928;28;20859;-73
2023/03/12 04:37:02;;;;;;;2.50;1.70;;;;;;;-145.03;100.00;78750.03;5062811;28;20487;-73
2023/03/12 04:39:29;;;;;;;3.43;1.77;;;;;;;-145.03;100.00;78752.00;5056122;28;20474;-74
2023/03/12 04:41:56;;;;;;;4.50;2.60;;;;;;;-145.03;100.00;78758.00;5061842;28;20472;-74
2023/03/12 04:44:24;;;;;;;5.63;1.90;;;;;;;-145.03;100.00;78758.00;5062590;28;20451;-74
2023/03/12 04:46:50;;;;;;;4.37;2.10;;;;;;;-145.03;100.00;78762.00;5062139;28;20470;-74
2023/03/12 04:49:20;;;;;;;2.57;2.10;;;;;;;-145.03;100.00;78766.00;5061679;28;20483;-74
2023/03/12 04:51:47;;;;;;;3.23;1.80;;;;;;;-145.03;100.00;78770.00;5057668;28;20474;-73
2023/03/12 04:54:13;;;;;;;3.53;2.07;;;;;;;-145.03;100.00;78779.97;5065275;28;20503;-73
2023/03/12 04:56:41;;;;;;;3.37;1.80;;;;;;;-145.03;100.00;78773.97;5059035;28;20551;-73
2023/03/12 04:59:08;;;;;;;2.77;1.87;;;;;;;-145.03;100.00;78770.00;5058833;28;20498;-73
2023/03/12 05:01:36;;;;;;;5.70;2.53;;;;;;;-145.03;100.00;78758.00;5062647;28;20454;-74
2023/03/12 05:04:08;;;;;;;2.27;1.60;;;;;;;-145.03;100.00;78752.00;5058590;28;20845;-73
2023/03/12 05:06:35;;;;;;;2.63;2.00;;;;;;;-145.03;100.00;78744.03;5062867;28;20458;-73
2023/03/12 05:09:02;;;;;;;2.20;1.90;;;;;;;-145.03;100.00;78726.06;5057307;28;20481;-73
2023/03/12 05:11:29;;;;;;;4.37;2.17;;;;;;;-145.03;100.00;78726.06;5063190;28;20470;-74
2023/03/12 05:13:55;;;;;;;2.53;2.20;;;;;;;-145.03;100.00;78714.06;5062032;28;20463;-74
2023/03/12 05:16:23;;;;;;;2.60;2.30;;;;;;;-145.03;100.00;78708.09;5061655;28;20539;-73
2023/03/12 05:18:51;;;;;;;3.13;2.30;;;;;;;-145.03;100.00;78704.09;5058913;28;20566;-74
2023/03/12 05:21:19;;;;;;;4.40;2.10;;;;;;;-145.03;100.00;78690.09;5062996;28;20919;-73
2023/03/12 05:23:48;;;;;;;6.77;2.00;;;;;;;-145.03;100.00;78690.09;5057080;28;21042;-73
2023/03/12 05:26:18;;;;;;;2.67;1.93;;;;;;;-145.03;100.00;78678.13;5062850;28;20457;-74
2023/03/12 05:28:44;;;;;;;5.30;2.93;;;;;;;-145.03;100.00;78664.16;5076216;28;20476;-73
2023/03/12 05:31:12;;;;;;;5.43;2.20;;;;;;;-145.03;100.00;78656.16;5060588;28;20467;-73
2023/03/12 05:33:39;;;;;;;5.20;2.77;;;;;;;-145.03;100.00;78658.16;5079115;28;20956;-73
2023/03/12 05:36:08;;;;;;;2.93;2.00;;;;;;;-145.03;100.00;78666.16;5058669;28;20499;-73
2023/03/12 05:38:35;;;;;;;4.63;2.30;;;;;;;-145.03;100.00;78664.16;5058840;28;20575;-73
2023/03/12 05:41:06;;;;;;;2.80;2.47;;;;;;;-145.03;100.00;78658.16;5060587;28;21006;-74
2023/03/12 05:43:36;;;;;;;3.20;2.20;;;;;;;-145.03;100.00;78652.16;5061124;28;20453;-74
2023/03/12 05:46:04;;;;;;;4.03;2.33;;;;;;;-145.03;100.00;78652.16;5058715;28;20459;-73
2023/03/12 05:48:32;;;;;;;5.50;2.40;;;;;;;-145.03;100.00;78644.19;5058602;28;20480;-73
2023/03/12 05:50:59;;;;;;;7.90;2.20;;;;;;;-145.03;100.00;78640.19;5056062;28;20467;-74
2023/03/12 05:53:27;;;;;;;4.50;2.20;;;;;;;-145.03;100.00;78644.19;5059012;28;20858;-73
2023/03/12 05:55:54;;;;;;;2.90;2.17;;;;;;;-145.03;100.00;78652.16;5061242;28;20211;-74
2023/03/12 05:58:20;;;;;;;1.90;1.70;;;;;;;-145.03;100.00;78662.16;5064800;28;21031;-73
2023/03/12 06:00:47;;;;;;;2.93;2.33;;;;;;;-145.03;100.00;78668.13;5062836;28;20452;-74
2023/03/12 06:03:16;;;;;;;4.30;1.90;;;;;;;-145.03;100.00;78674.13;5058955;28;20495;-74
2023/03/12 06:05:44;;;;;;;2.80;2.23;;;;;;;-145.03;100.00;78680.13;5064290;28;20448;-73
2023/03/12 06:08:11;;;;;;;3.10;2.27;;;;;;;-145.03;100.00;78680.13;5066040;28;21073;-74
2023/03/12 06:10:40;;;;;;;3.80;2.83;;;;;;;-145.03;100.00;78680.13;5059869;28;20464;-74
2023/03/12 06:13:08;;;;;;;5.77;2.40;;;;;;;-145.03;100.00;78684.13;5063903;28;20454;-74
2023/03/12 06:15:34;;;;;;;5.33;2.33;;;;;;;-145.03;100.00;78680.13;5060130;28;21018;-74
2023/03/12 06:18:02;;;;;;;3.50;2.20;;;;;;;-145.03;100.00;78684.13;5075083;28;21232;-75
2023/03/12 06:20:29;;;;;;;4.43;2.70;;;;;;;-145.03;100.00;78678.13;5058564;28;21023;-74
2023/03/12 06:22:55;;;;;;;3.50;2.70;;;;;;;-145.03;100.00;78674.13;5060196;28;20465;-74
2023/03/12 06:25:22;;;;;;;4.80;2.30;;;;;;;-145.03;100.00;78674.13;5059157;28;20467;-73
2023/03/12 06:27:49;;;;;;;4.80;2.47;;;;;;;-145.03;100.00;78674.13;5057005;28;20541;-74
2023/03/12 06:30:17;;;;;;;5.97;2.10;;;;;;;-145.03;100.00;78664.16;5061926;28;20464;-73
2023/03/12 06:32:44;;;;;;;4.67;2.50;;;;;;;-145.03;100.00;78662.16;5062577;28;21017;-73
2023/03/12 06:35:10;;;;;;;4.10;2.40;;;;;;;-145.03;100.00;78652.16;5064116;28;20829;-73
2023/03/12 06:37:37;;;;;;;4.83;2.47;;;;;;;-145.03;100.00;78648.16;5055999;28;20458;-74
2023/03/12 06:40:06;;;;;;;5.40;2.20;;;;;;;-145.03;100.00;78646.16;5061464;28;20979;-74
2023/03/12 06:42:33;;;;;;;5.13;2.30;;;;;;;-145.03;100.00;78644.19;5064789;28;20202;-73
2023/03/12 06:45:01;;;;;;;6.93;2.50;;;;;;;-145.03;100.00;78634.19;5056990;28;20873;-74
2023/03/12 06:47:27;;;;;;;4.10;2.90;;;;;;;-145.03;100.00;78624.22;5061444;28;20487;-74
2023/03/12 06:49:53;;;;;;;5.17;2.57;;;;;;;-145.03;100.00;78616.22;5062116;28;20193;-74
2023/03/12 06:52:20;;;;;;;4.17;2.37;;;;;;;-145.03;100.00;78618.22;5061983;28;20206;-73
2023/03/12 06:54:46;;;;;;;5.00;2.57;;;;;;;-145.03;100.00;78608.22;5061868;28;20244;-74
2023/03/12 06:57:15;;;;;;;4.33;2.50;;;;;;;-145.03;100.00;78598.25;5062326;28;20457;-74
2023/03/12 06:59:41;;;;;;;6.83;2.57;;;;;;;-145.03;100.00;78590.25;5077277;22;20239;-72
2023/03/12 07:02:11;;;;;;;7.03;2.40;;;;;;;-145.03;100.00;78584.25;5047891;28;20195;-72
2023/03/12 07:04:37;;;;;;;3.77;2.50;;;;;;;-145.03;100.00;78574.28;5046972;28;20191;-72
2023/03/12 07:07:03;;;;;;;5.67;2.20;;;;;;;-145.03;100.00;78568.28;5068599;28;20269;-72
2023/03/12 07:09:31;;;;;;;4.27;3.17;;;;;;;-145.03;100.00;78560.31;5069247;28;20237;-72
2023/03/12 07:11:58;;;;;;;3.43;2.20;;;;;;;-145.03;100.00;78556.31;5068522;28;20214;-72
2023/03/12 07:14:24;;;;;;;5.60;2.70;;;;;;;-145.03;100.00;78546.31;5040313;22;20505;-71
2023/03/12 07:16:50;;;;;;;5.80;2.70;;;;;;;-145.03;100.00;78542.34;5041517;28;20199;-70
2023/03/12 07:19:18;;;;;;;3.90;2.60;;;;;;;-145.03;100.00;78526.34;5039829;28;20688;-71
2023/03/12 07:21:45;;;;;;;4.43;2.53;;;;;;;-145.03;100.00;78524.34;5042327;28;20689;-73
2023/03/12 07:24:11;;;;;;;4.43;2.93;;;;;;;-145.03;100.00;78520.38;5022960;28;20483;-73
2023/03/12 07:26:38;;;;;;;4.67;2.77;;;;;;;-145.03;100.00;78510.38;5023929;28;20835;-72
2023/03/12 07:29:05;;;;;;;6.23;2.50;;;;;;;-145.03;100.00;78512.38;5019814;28;20294;-73
2023/03/12 07:31:31;;;;;;;3.40;2.33;;;;;;;-145.03;100.00;78512.38;5002827;28;20211;-73
2023/03/12 07:33:57;;;;;;;3.77;2.67;;;;;;;-145.03;100.00;78506.38;5021768;28;20267;-73
2023/03/12 07:36:25;;;;;;;4.30;2.53;;;;;;;-145.03;100.00;78504.38;5006302;28;20774;-73
2023/03/12 07:38:51;;;;;;;3.93;2.50;;;;;;;-145.03;100.00;78486.41;5022327;28;20211;-73
2023/03/12 07:41:18;;;;;;;5.40;2.70;;;;;;;-145.03;100.00;78480.44;5022484;28;20192;-73
2023/03/12 07:43:44;;;;;;;4.63;2.10;;;;;;;-145.03;100.00;78468.44;5024500;28;20226;-72
2023/03/12 07:46:11;;;;;;;5.53;2.33;;;;;;;-145.03;100.00;78462.44;5025151;28;20222;-71
2023/03/12 07:48:37;;;;;;;4.73;2.10;;;;;;;-145.03;100.00;78452.47;5022184;28;20241;-72
2023/03/12 07:51:04;;;;;;;4.93;2.30;;;;;;;-145.03;100.00;78450.47;5022218;28;20200;-73
2023/03/12 07:53:32;;;;;;;2.73;2.10;;;;;;;-145.03;100.00;78434.50;5023796;28;20273;-73
2023/03/12 07:55:58;;;;;;;4.80;3.20;;;;;;;-145.03;100.00;78428.50;5022717;28;20203;-74
2023/03/12 07:58:25;;;;;;;5.50;2.80;;;;;;;-145.03;100.00;78416.53;5022859;28;20274;-73
2023/03/12 08:00:52;;;;;;;3.30;2.07;;;;;;;-145.03;100.00;78404.53;5021320;28;20238;-73
2023/03/12 08:03:18;;;;;;;3.30;2.23;;;;;;;-145.03;100.00;78394.56;5002023;28;20800;-73
2023/03/12 08:05:45;;;;;;;10.03;2.90;;;;;;;-145.03;100.00;78386.56;5022619;28;20200;-72
2023/03/12 08:08:11;;;;;;;4.57;2.13;;;;;;;-145.03;100.00;78376.59;5023686;28;20203;-72
2023/03/12 08:10:39;;;;;;;2.93;2.30;;;;;;;-145.03;100.00;78360.63;5017910;28;20203;-73
2023/03/12 08:13:05;;;;;;;2.80;1.97;;;;;;;-145.03;100.00;78356.63;5022364;28;20451;-72
2023/03/12 08:15:32;;;;;;;3.37;1.90;;;;;;;-145.03;100.00;78348.63;5023044;28;20192;-73
2023/03/12 08:18:00;;;;;;;3.83;2.33;;;;;;;-145.03;100.00;78332.66;5018296;28;20227;-73
2023/03/12 08:20:28;;;;;;;2.00;1.80;;;;;;;-145.03;100.00;78312.69;5020916;28;20449;-74
2023/03/12 08:22:55;;;;;;;4.00;2.30;;;;;;;-145.03;100.00;78286.72;5016688;28;20235;-72
2023/03/12 08:25:23;;;;;;;8.93;2.40;;;;;;;-145.03;100.00;78252.78;5019231;28;20573;-74
2023/03/12 08:27:51;;;;;;;3.10;2.10;;;;;;;-145.03;100.00;78234.81;5005389;28;20747;-74
2023/03/12 08:30:17;;;;;;;7.87;2.47;;;;;;;-145.03;100.00;78206.84;5023309;28;20204;-73
2023/03/12 08:32:44;;;;;;;8.13;2.53;;;;;;;-145.03;100.00;78196.88;5020851;28;20224;-74
2023/03/12 08:35:11;;;;;;;3.40;2.00;;;;;;;-145.03;100.00;78196.88;5020664;28;20690;-73
2023/03/12 08:37:37;;;;;;;1.93;1.53;;;;;;;-145.03;100.00;78192.88;5019320;28;20580;-74
2023/03/12 08:40:11;;;;;;;4.17;2.00;;;;;;;-145.03;100.00;78208.84;5003627;28;20290;-74
2023/03/12 08:42:38;;;;;;;3.00;1.70;;;;;;;-145.03;100.00;78222.84;5017579;28;20314;-73
2023/03/12 08:45:07;;;;;;;4.70;1.87;;;;;;;-145.03;100.00;78222.84;5015293;28;21051;-73
2023/03/12 08:47:33;;;;;;;3.57;1.80;;;;;;;-145.03;100.00;78218.84;5025028;28;20576;-74
2023/03/12 08:49:59;;;;;;;3.20;2.07;;;;;;;-145.03;100.00;78208.84;5016801;28;20192;-73
2023/03/12 08:52:26;;;;;;;3.30;1.93;;;;;;;-145.03;100.00;78200.88;5018338;28;20226;-74
2023/03/12 08:54:52;;;;;;;2.13;1.80;;;;;;;-145.03;100.00;78190.88;5019695;28;20206;-73
2023/03/12 08:57:19;;;;;;;4.43;2.90;;;;;;;-145.03;100.00;78180.91;5019131;28;20205;-72
2023/03/12 08:59:45;;;;;;;9.93;3.67;;;;;;;-145.03;100.00;78166.91;5017142;28;20561;-74
2023/03/12 09:02:13;;;;;;;3.20;1.93;;;;;;;-145.03;100.00;78136.97;5015153;28;20260;-73
2023/03/12 09:04:39;;;;;;;4.97;2.27;;;;;;;-145.03;100.00;78146.97;5010156;28;20620;-73
2023/03/12 09:07:06;;;;;;;2.77;2.30;;;;;;;-145.03;100.00;78148.94;5022430;28;20562;-74
2023/03/12 09:09:32;;;;;;;3.77;2.03;;;;;;;-145.03;100.00;78128.97;5016861;28;20214;-74
2023/03/12 09:11:59;;;;;;;2.77;1.70;;;;;;;-145.03;100.00;78121.00;5014307;28;20208;-74
2023/03/12 09:14:25;;;;;;;3.67;1.90;;;;;;;-145.03;100.00;78107.03;5014110;28;20243;-73
2023/03/12 09:16:52;;;;;;;2.60;2.00;;;;;;;-145.03;100.00;77591.91;5014793;28;20555;-72
2023/03/12 09:19:20;;;;;;;5.40;2.30;;;;;;;-145.04;100.00;59010.84;5018704;28;20763;-71
2023/03/12 09:21:46;;;;;;;5.37;2.80;;;;;;;-145.04;100.00;59010.84;5007949;28;20654;-72
2023/03/12 09:26:10;;;;;;;5.10;1.63;;;;;;;;;;5133444;27;20597;-76
2023/03/12 09:28:36;;;;;;;7.30;2.07;;;;;;;;;;5120298;27;20221;-76
2023/03/12 09:31:03;;;;;;;5.93;1.73;;;;;;;;;;5094969;28;20224;-77
2023/03/12 09:33:29;;;;;;;3.73;2.10;;;;;;;;;;5092498;28;20201;-76
2023/03/12 09:35:56;;;;;;;4.70;2.30;;;;;;;;;;5095855;28;20193;-76
2023/03/12 09:38:22;;;;;;;2.23;1.70;;;;;;;;;;5108408;27;20220;-74
2023/03/12 09:40:49;;;;;;;2.57;1.80;;;;;;;;;;5092879;28;20717;-76
2023/03/12 09:43:20;;;;;;;3.10;2.10;;;;;;;;;;5095337;28;20561;-76
2023/03/12 09:45:47;;;;;;;3.47;1.63;;;;;;;;;;5094158;28;20210;-76
2023/03/12 09:48:14;;;;;;;2.30;1.50;;;;;;;;;;5093245;28;20479;-75
2023/03/12 09:50:43;;;;;;;2.63;1.67;;;;;;;;;;5095661;28;20194;-77
2023/03/12 09:53:11;;;;;;;1.33;1.20;;;;;;;;;;5095138;28;20240;-77
2023/03/12 09:55:38;;;;;;;2.30;1.60;;;;;;;;;;5092677;28;20530;-76
2023/03/12 09:58:10;;;;;;;3.73;1.30;;;;;;;;;;5092719;28;20229;-76
2023/03/12 10:00:38;;;;;;;2.10;1.80;;;;;;;;;;5109056;27;20204;-76
2023/03/12 10:03:10;;;;;;;2.00;1.20;;;;;;;;;;5113133;28;20209;-77
2023/03/12 10:05:37;;;;;;;4.13;1.70;;;;;;;;;;5096386;28;20713;-76
2023/03/12 10:08:05;;;;;;;2.70;1.43;;;;;;;;;;5091716;28;20194;-77
2023/03/12 10:10:42;;;;;;;2.70;1.43;;;;;;;;;;5091899;28;20869;-75
2023/03/12 10:13:18;;;;;;;2.07;1.30;;;;;;;;;;5090534;28;20222;-76
2023/03/12 10:15:50;;;;;;;2.00;1.43;;;;;;;;;;5109050;27;20216;-74
2023/03/12 10:18:21;;;;;;;3.20;1.33;;;;;;;;;;5092640;28;20224;-77
2023/03/12 10:20:56;;;;;;;1.93;0.93;;;;;;;;;;5093244;28;20202;-76
2023/03/12 10:23:28;;;;;;;2.23;1.20;;;;;;;;;;5096334;28;20216;-76
2023/03/12 10:25:57;;;;;;;1.90;1.33;;;;;;;;;;5095128;28;20293;-77
2023/03/12 10:28:29;;;;;;;3.70;1.60;;;;;;;;;;5093425;28;20453;-76
2023/03/12 10:30:59;;;;;;;2.03;1.17;;;;;;;;;;5094135;28;20546;-75
2023/03/12 10:33:33;;;;;;;1.83;1.17;;;;;;;;;;5092942;28;21521;-75
2023/03/12 10:35:59;;;;;;;2.63;1.50;;;;;;;;;;5089181;28;20201;-76
2023/03/12 10:38:27;;;;;;;1.83;1.60;;;;;;;;;;5079229;28;20228;-75
2023/03/12 10:40:54;;;;;;;2.77;1.80;;;;;;;;;;5080533;28;20386;-77
2023/03/12 10:43:20;;;;;;;2.93;1.70;;;;;;;;;;5078424;28;20194;-76
2023/03/12 10:45:49;;;;;;;3.20;1.60;;;;;;;;;;5080669;28;20217;-76
2023/03/12 10:48:20;;;;;;;1.87;1.60;;;;;;;;;;5078380;28;20869;-76
2023/03/12 10:51:00;;;;;;;4.23;1.47;;;;;;;;;;5079750;28;20202;-76
2023/03/12 10:53:30;;;;;;;2.97;1.40;;;;;;;;;;5080018;28;20194;-76
2023/03/12 10:56:01;;;;;;;3.43;1.50;;;;;;;;;;5080223;28;20684;-76
2023/03/12 10:58:31;;;;;;;2.03;1.33;;;;;;;;;;5078812;28;20222;-77
2023/03/12 11:00:59;;;;;;;3.87;1.40;;;;;;;;;;5095221;28;20571;-77
2023/03/12 11:03:27;;;;;;;2.27;1.47;;;;;;;;;;5079942;28;20550;-77
2023/03/12 11:05:54;;;;;;;3.30;1.57;;;;;;;;;;5078750;28;20229;-76
2023/03/12 11:08:23;;;;;;;1.47;1.13;;;;;;;;;;5079301;28;20232;-77
2023/03/12 11:10:50;;;;;;;3.80;1.30;;;;;;;;;;5074058;28;20614;-75
2023/03/12 11:13:24;;;;;;;1.13;1.03;;;;;;;;;;5079407;28;20205;-77
2023/03/12 11:15:51;;;;;;;3.83;1.50;;;;;;;;;;5077709;28;20425;-76
2023/03/12 11:18:30;;;;;;;1.90;1.30;;;;;;;;;;5085980;27;20574;-75
2023/03/12 11:20:57;;;;;;;2.17;1.10;;;;;;;;;;5079902;28;20701;-76
2023/03/12 11:23:25;;;;;;;3.00;1.90;;;;;;;;;;5088885;27;20336;-77
2023/03/12 11:25:53;;;;;;;3.77;1.90;;;;;;;;;;5100785;27;20212;-77
2023/03/12 11:28:22;;;;;;;2.87;0.90;;;;;;;;;;5099111;27;20240;-74
2023/03/12 11:30:49;;;;;;;2.20;1.47;;;;;;;;;;5096660;27;20275;-76
2023/03/12 11:33:16;;;;;;;1.93;1.20;;;;;;;;;;5115196;27;20213;-76
2023/03/12 11:35:49;;;;;;;1.70;1.40;;;;;;;;;;5115364;27;20198;-76
2023/03/12 11:38:17;;;;;;;3.30;1.20;;;;;;;;;;5096744;27;20224;-77
2023/03/12 11:40:55;;;;;;;5.50;2.50;;;;;;;;;;5116090;27;20197;-77
2023/03/12 11:43:27;;;;;;;5.87;2.20;;;;;;;;;;5098071;28;20208;-77
2023/03/12 11:46:01;;;;;;;2.53;1.60;;;;;;;;;;5097141;27;20214;-77
2023/03/12 11:48:31;;;;;;;4.13;2.70;;;;;;;;;;5095823;28;20262;-76